createdAt,value
2023-02-14T00:01:20.421Z,8.23
2023-02-14T00:03:50.089Z,8.90
2023-02-14T00:06:17.894Z,9.80
2023-02-14T00:08:45.651Z,11.35
2023-02-14T00:11:13.651Z,10.98
2023-02-14T00:14:01.316Z,12.02
2023-02-14T00:16:28.104Z,13.60
2023-02-14T00:19:06.386Z,13.90
2023-02-14T00:21:35.804Z,15.05
2023-02-14T00:24:03.489Z,15.88
2023-02-14T00:26:31.185Z,16.23
2023-02-14T00:28:58.857Z,17.08
2023-02-14T00:31:26.612Z,18.63
2023-02-14T00:33:56.617Z,19.08
2023-02-14T00:36:24.305Z,20.17
2023-02-14T00:38:51.969Z,20.58
2023-02-14T00:41:20.096Z,22.10
2023-02-14T00:43:48.115Z,22.48
2023-02-14T00:46:15.876Z,22.40
2023-02-14T00:48:43.652Z,23.70
2023-02-14T00:51:13.147Z,26.00
2023-02-14T00:53:40.839Z,25.30
2023-02-14T00:56:08.555Z,27.50
2023-02-14T00:58:36.853Z,28.80
2023-02-14T01:01:04.669Z,29.17
2023-02-14T01:03:32.375Z,30.85
2023-02-14T01:06:00.076Z,32.72
2023-02-14T01:08:29.161Z,32.45
2023-02-14T01:10:57.289Z,35.15
2023-02-14T01:13:27.574Z,35.28
2023-02-14T01:15:56.375Z,35.85
2023-02-14T01:18:24.030Z,38.28
2023-02-14T01:20:51.689Z,37.33
2023-02-14T01:23:20.661Z,40.53
2023-02-14T01:25:51.146Z,41.00
2023-02-14T01:28:18.815Z,43.75
2023-02-14T01:30:46.915Z,45.17
2023-02-14T01:33:14.612Z,43.47
2023-02-14T01:35:42.281Z,47.42
2023-02-14T01:38:09.952Z,49.45
2023-02-14T01:40:43.488Z,50.38
2023-02-14T01:43:14.795Z,52.40
2023-02-14T01:45:42.968Z,53.13
2023-02-14T01:48:10.636Z,55.25
2023-02-14T01:50:41.355Z,56.53
2023-02-14T01:53:10.498Z,57.42
2023-02-14T01:55:39.366Z,56.40
2023-02-14T01:58:09.692Z,57.63
2023-02-14T02:00:56.263Z,61.63
2023-02-14T02:03:24.094Z,63.10
2023-02-14T02:05:52.639Z,66.50
2023-02-14T02:08:20.346Z,71.38
2023-02-14T02:10:48.015Z,71.90
2023-02-14T02:13:16.799Z,67.85
2023-02-14T02:15:50.884Z,73.35
2023-02-14T02:18:20.680Z,73.20
2023-02-14T02:21:24.464Z,74.82
2023-02-14T02:24:29.513Z,81.53
2023-02-14T02:27:21.392Z,80.28
2023-02-14T02:30:16.190Z,82.03
2023-02-14T02:33:17.551Z,83.20
2023-02-14T02:35:52.071Z,88.15
2023-02-14T02:38:27.812Z,87.65
2023-02-14T02:40:59.370Z,92.53
2023-02-14T02:43:33.189Z,91.75
2023-02-14T02:46:20.437Z,99.90
2023-02-14T02:48:49.661Z,96.65
2023-02-14T02:51:38.939Z,97.97
2023-02-14T02:54:09.878Z,94.90
2023-02-14T02:56:45.391Z,102.22
2023-02-14T02:59:18.250Z,102.15
2023-02-14T03:01:52.063Z,103.32
2023-02-14T03:04:37.452Z,98.05
2023-02-14T03:07:26.705Z,97.35
2023-02-14T03:09:56.674Z,100.90
2023-02-14T03:12:52.206Z,101.40
2023-02-14T03:15:23.322Z,103.95
2023-02-14T03:17:56.522Z,99.70
2023-02-14T03:20:24.274Z,99.35
2023-02-14T03:22:54.878Z,101.63
2023-02-14T03:25:29.260Z,98.30
2023-02-14T03:28:02.122Z,97.72
2023-02-14T03:30:36.608Z,99.68
2023-02-14T03:33:05.410Z,98.07
2023-02-14T03:35:35.624Z,96.55
2023-02-14T03:38:08.242Z,96.47
2023-02-14T03:40:37.614Z,95.53
2023-02-14T03:43:06.878Z,94.32
2023-02-14T03:45:36.608Z,91.18
2023-02-14T03:48:06.497Z,93.07
2023-02-14T03:50:34.206Z,90.85
2023-02-14T03:53:01.906Z,90.60
2023-02-14T03:55:33.510Z,90.75
2023-02-14T03:58:04.603Z,91.18
2023-02-14T04:00:32.596Z,88.18
2023-02-14T04:03:01.815Z,87.25
2023-02-14T04:05:29.468Z,83.68
2023-02-14T04:07:58.363Z,86.55
2023-02-14T04:10:26.311Z,87.53
2023-02-14T04:12:55.315Z,85.25
2023-02-14T04:15:22.973Z,82.45
2023-02-14T04:18:08.465Z,83.15
2023-02-14T04:20:37.014Z,82.25
2023-02-14T04:23:04.719Z,77.72
2023-02-14T04:25:32.366Z,76.95
2023-02-14T04:28:01.406Z,77.45
2023-02-14T04:30:29.145Z,76.82
2023-02-14T04:32:56.953Z,77.95
2023-02-14T04:35:24.598Z,76.03
2023-02-14T04:37:52.242Z,69.82
2023-02-14T04:40:20.136Z,73.40
2023-02-14T04:42:47.875Z,73.18
2023-02-14T04:45:16.923Z,70.78
2023-02-14T04:47:44.578Z,69.45
2023-02-14T04:50:12.304Z,67.97
2023-02-14T04:52:39.977Z,67.55
2023-02-14T04:55:09.136Z,67.00
2023-02-14T04:57:36.893Z,66.25
2023-02-14T05:00:04.818Z,62.40
2023-02-14T05:02:33.843Z,61.65
2023-02-14T05:05:01.591Z,60.97
2023-02-14T05:07:29.268Z,61.42
2023-02-14T05:09:56.911Z,59.13
2023-02-14T05:12:24.607Z,57.83
2023-02-14T05:14:52.272Z,56.90
2023-02-14T05:17:19.940Z,56.22
2023-02-14T05:19:48.932Z,56.72
2023-02-14T05:22:18.467Z,55.15
2023-02-14T05:24:46.289Z,54.78
2023-02-14T05:27:13.971Z,54.70
2023-02-14T05:29:41.638Z,53.95
2023-02-14T05:32:09.456Z,52.95
2023-02-14T05:34:37.182Z,50.45
2023-02-14T05:37:06.187Z,49.88
2023-02-14T05:39:33.884Z,50.45
2023-02-14T05:42:01.618Z,48.20
2023-02-14T05:44:29.258Z,48.92
2023-02-14T05:46:56.910Z,47.50
2023-02-14T05:49:24.597Z,46.35
2023-02-14T05:51:52.263Z,46.08
2023-02-14T05:54:21.271Z,45.30
2023-02-14T05:56:48.979Z,44.08
2023-02-14T05:59:16.871Z,44.95
2023-02-14T06:01:44.608Z,41.63
2023-02-14T06:04:12.340Z,41.00
2023-02-14T06:06:40.059Z,39.55
2023-02-14T06:09:07.721Z,40.97
2023-02-14T06:11:36.708Z,38.15
2023-02-14T06:14:04.473Z,38.90
2023-02-14T06:16:32.188Z,37.60
2023-02-14T06:18:59.955Z,36.15
2023-02-14T06:21:27.779Z,35.63
2023-02-14T06:23:55.451Z,35.08
2023-02-14T06:26:23.157Z,35.05
2023-02-14T06:28:55.313Z,34.22
2023-02-14T06:31:23.109Z,33.85
2023-02-14T06:33:50.843Z,31.08
2023-02-14T06:36:18.591Z,31.23
2023-02-14T06:38:47.795Z,29.98
2023-02-14T06:41:16.939Z,29.70
2023-02-14T06:43:45.085Z,30.08
2023-02-14T06:46:14.097Z,28.75
2023-02-14T06:48:41.789Z,28.90
2023-02-14T06:51:09.438Z,28.35
2023-02-14T06:53:37.279Z,27.35
2023-02-14T06:56:05.430Z,25.58
2023-02-14T06:58:33.120Z,25.75
2023-02-14T07:01:01.206Z,25.40
2023-02-14T07:03:30.492Z,24.02
2023-02-14T07:05:58.639Z,23.58
2023-02-14T07:08:26.482Z,23.95
2023-02-14T07:10:56.827Z,22.63
2023-02-14T07:13:24.582Z,22.10
2023-02-14T07:15:52.339Z,22.00
2023-02-14T07:18:20.077Z,20.45
2023-02-14T07:20:50.051Z,20.60
2023-02-14T07:23:17.763Z,21.23
2023-02-14T07:25:45.475Z,19.73
2023-02-14T07:28:13.152Z,20.20
2023-02-14T07:30:40.929Z,19.15
2023-02-14T07:33:08.654Z,18.92
2023-02-14T07:35:36.382Z,17.20
2023-02-14T07:38:05.489Z,17.05
2023-02-14T07:40:33.138Z,17.08
2023-02-14T07:43:01.009Z,16.58
2023-02-14T07:45:28.745Z,16.50
2023-02-14T07:47:56.466Z,16.23
2023-02-14T07:50:24.515Z,15.35
2023-02-14T07:52:52.355Z,14.98
2023-02-14T07:55:22.774Z,14.65
2023-02-14T07:57:50.517Z,14.43
2023-02-14T08:00:18.968Z,14.15
2023-02-14T08:02:46.681Z,14.15
2023-02-14T08:05:14.797Z,12.98
2023-02-14T08:07:43.036Z,13.30
2023-02-14T08:10:13.011Z,12.63
2023-02-14T08:13:00.729Z,12.07
2023-02-14T08:15:46.856Z,12.55
2023-02-14T08:18:14.703Z,11.52
2023-02-14T08:20:42.387Z,11.93
2023-02-14T08:23:10.109Z,11.02
2023-02-14T08:25:37.862Z,10.52
2023-02-14T08:28:06.967Z,10.82
2023-02-14T08:30:34.812Z,10.48
2023-02-14T08:33:02.555Z,9.80
2023-02-14T08:35:30.296Z,9.55
2023-02-14T08:37:58.101Z,9.73
2023-02-14T08:40:25.835Z,9.43
2023-02-14T08:42:53.516Z,9.57
2023-02-14T08:45:22.653Z,8.93
2023-02-14T08:47:50.408Z,8.38
2023-02-14T08:50:19.092Z,8.27
2023-02-14T08:52:46.774Z,8.38
2023-02-14T08:55:14.869Z,8.40
2023-02-14T08:57:42.557Z,8.05
2023-02-14T09:00:11.050Z,7.85
2023-02-14T09:02:40.103Z,7.55
2023-02-14T09:05:10.474Z,7.65
2023-02-14T09:07:38.223Z,7.65
2023-02-14T09:10:07.325Z,7.32
2023-02-14T09:12:35.333Z,6.97
2023-02-14T09:15:03.085Z,6.43
2023-02-14T09:17:31.088Z,6.30
2023-02-14T09:20:00.293Z,6.63
2023-02-14T09:22:28.003Z,6.32
2023-02-14T09:24:55.734Z,5.85
2023-02-14T09:27:23.394Z,6.25
2023-02-14T09:29:51.113Z,6.10
2023-02-14T09:32:18.850Z,5.90
2023-02-14T09:35:04.017Z,5.85
2023-02-14T09:37:33.044Z,5.25
2023-02-14T09:40:00.770Z,5.50
2023-02-14T09:42:41.145Z,5.20
2023-02-14T09:45:11.718Z,5.32
2023-02-14T09:47:43.026Z,5.30
2023-02-14T09:50:16.450Z,5.25
2023-02-14T09:52:46.055Z,5.18
2023-02-14T09:55:15.377Z,5.32
2023-02-14T09:57:47.510Z,5.15
2023-02-14T10:00:19.933Z,4.93
2023-02-14T10:02:55.727Z,5.18
2023-02-14T10:05:26.190Z,4.80
2023-02-14T10:08:00.962Z,4.93
2023-02-14T10:10:30.784Z,4.72
2023-02-14T10:13:02.914Z,4.20
2023-02-14T10:15:32.736Z,4.40
2023-02-14T10:18:02.533Z,4.07
2023-02-14T10:20:33.129Z,4.43
2023-02-14T10:23:04.766Z,4.45
2023-02-14T10:25:36.311Z,4.35
2023-02-14T10:28:04.200Z,4.30
2023-02-14T10:30:37.832Z,4.32
2023-02-14T10:33:08.365Z,4.20
2023-02-14T10:35:42.769Z,4.43
2023-02-14T10:38:17.387Z,4.32
2023-02-14T10:41:05.985Z,3.92
2023-02-14T10:43:36.960Z,3.90
2023-02-14T10:46:07.687Z,3.70
2023-02-14T10:48:41.245Z,3.95
2023-02-14T10:51:13.536Z,3.80
2023-02-14T10:53:46.501Z,3.90
2023-02-14T10:56:18.516Z,3.88
2023-02-14T10:58:46.297Z,3.90
2023-02-14T11:01:14.849Z,4.13
2023-02-14T11:03:46.311Z,3.58
2023-02-14T11:06:14.419Z,3.60
2023-02-14T11:08:43.471Z,3.75
2023-02-14T11:11:15.106Z,3.70
2023-02-14T11:13:43.089Z,3.70
2023-02-14T11:16:11.979Z,4.10
2023-02-14T11:18:40.831Z,3.60
2023-02-14T11:21:10.474Z,3.72
2023-02-14T11:23:40.278Z,3.33
2023-02-14T11:26:18.620Z,3.50
2023-02-14T11:28:50.134Z,3.65
2023-02-14T11:31:26.377Z,3.42
2023-02-14T11:33:54.334Z,3.72
2023-02-14T11:36:22.070Z,3.47
2023-02-14T11:38:56.418Z,3.40
2023-02-14T11:41:26.130Z,3.42
2023-02-14T11:43:53.876Z,3.55
2023-02-14T11:46:26.961Z,3.40
2023-02-14T11:48:56.421Z,3.78
2023-02-14T11:51:28.018Z,3.10
2023-02-14T11:53:56.857Z,3.15
2023-02-14T11:56:25.878Z,3.22
2023-02-14T11:58:55.320Z,3.08
2023-02-14T12:01:25.002Z,3.30
2023-02-14T12:03:52.974Z,3.40
2023-02-14T12:06:24.853Z,3.30
2023-02-14T12:08:52.521Z,3.22
2023-02-14T12:11:22.124Z,3.13
2023-02-14T12:13:56.345Z,3.28
2023-02-14T12:16:39.198Z,3.10
2023-02-14T12:19:07.632Z,3.20
2023-02-14T12:21:42.002Z,3.15
2023-02-14T12:24:16.597Z,3.20
2023-02-14T12:26:47.689Z,3.30
2023-02-14T12:29:19.468Z,2.92
2023-02-14T12:31:47.925Z,3.00
2023-02-14T12:34:16.106Z,3.20
2023-02-14T12:36:52.496Z,3.25
2023-02-14T12:39:23.350Z,3.03
2023-02-14T12:41:59.822Z,3.10
2023-02-14T12:44:33.990Z,3.00
2023-02-14T12:47:19.116Z,2.83
2023-02-14T12:50:04.028Z,3.10
2023-02-14T12:52:39.528Z,3.10
2023-02-14T12:55:21.750Z,3.17
2023-02-14T12:57:52.787Z,2.80
2023-02-14T13:00:31.991Z,2.83
2023-02-14T13:03:13.609Z,3.22
2023-02-14T13:05:47.575Z,2.78
2023-02-14T13:08:22.917Z,2.88
2023-02-14T13:10:54.719Z,2.90
2023-02-14T13:13:27.460Z,2.80
2023-02-14T13:15:59.765Z,2.67
2023-02-14T13:18:35.552Z,2.80
2023-02-14T13:21:03.955Z,2.80
2023-02-14T13:23:32.982Z,2.75
2023-02-14T13:26:01.722Z,3.00
2023-02-14T13:28:29.579Z,2.90
2023-02-14T13:30:58.891Z,2.60
2023-02-14T13:33:29.272Z,2.70
2023-02-14T13:35:58.256Z,2.78
2023-02-14T13:38:26.450Z,2.50
2023-02-14T13:40:54.766Z,2.65
2023-02-14T13:43:48.033Z,2.70
2023-02-14T13:46:17.559Z,2.72
2023-02-14T13:48:47.929Z,2.60
2023-02-14T13:51:15.670Z,2.67
2023-02-14T13:53:44.061Z,2.50
2023-02-14T13:56:34.730Z,2.40
2023-02-14T13:59:05.307Z,2.20
2023-02-14T14:01:36.672Z,2.70
2023-02-14T14:04:06.168Z,2.33
2023-02-14T14:07:12.548Z,2.78
2023-02-14T14:10:00.102Z,2.50
2023-02-14T14:12:45.627Z,2.50
2023-02-14T14:15:18.352Z,2.30
2023-02-14T14:17:50.616Z,2.45
2023-02-14T14:20:44.846Z,2.58
2023-02-14T14:23:31.887Z,2.60
2023-02-14T14:25:59.882Z,2.53
2023-02-14T14:28:28.346Z,2.35
2023-02-14T14:30:56.126Z,2.50
2023-02-14T14:33:29.422Z,2.67
2023-02-14T14:35:58.398Z,2.60
2023-02-14T14:38:26.518Z,2.42
2023-02-14T14:40:54.339Z,2.60
2023-02-14T14:43:27.067Z,2.67
2023-02-14T14:45:56.107Z,2.70
2023-02-14T14:48:31.744Z,3.00
2023-02-14T14:50:59.965Z,2.60
2023-02-14T14:53:29.486Z,2.63
2023-02-14T14:55:57.249Z,2.60
2023-02-14T14:58:34.105Z,2.90
2023-02-14T15:01:01.884Z,2.50
2023-02-14T15:03:31.096Z,2.60
2023-02-14T15:06:11.165Z,2.60
2023-02-14T15:08:38.831Z,2.58
2023-02-14T15:11:10.368Z,2.80
2023-02-14T15:13:53.557Z,2.80
2023-02-14T15:16:22.971Z,2.42
2023-02-14T15:18:52.025Z,2.60
2023-02-14T15:21:19.716Z,2.47
2023-02-14T15:23:47.473Z,2.33
2023-02-14T15:26:18.375Z,2.70
2023-02-14T15:28:46.090Z,2.65
2023-02-14T15:31:13.922Z,2.85
2023-02-14T15:33:41.728Z,2.70
2023-02-14T15:36:16.551Z,2.50
2023-02-14T15:38:44.275Z,2.63
2023-02-14T15:41:12.913Z,2.60
2023-02-14T15:43:41.214Z,2.50
2023-02-14T15:46:17.080Z,2.70
2023-02-14T15:48:45.206Z,2.72
2023-02-14T15:51:20.173Z,2.50
2023-02-14T15:53:51.058Z,2.80
2023-02-14T15:56:21.002Z,2.60
2023-02-14T15:58:49.424Z,2.78
2023-02-14T16:01:21.524Z,2.70
2023-02-14T16:03:51.205Z,2.70
2023-02-14T16:06:33.327Z,2.55
2023-02-14T16:09:01.197Z,2.55
2023-02-14T16:11:30.678Z,2.50
2023-02-14T16:13:58.454Z,2.88
2023-02-14T16:16:26.127Z,2.58
2023-02-14T16:18:56.429Z,2.28
2023-02-14T16:21:24.982Z,2.40
2023-02-14T16:24:13.111Z,2.47
2023-02-14T16:26:41.459Z,2.78
2023-02-14T16:29:09.846Z,2.35
2023-02-14T16:31:37.720Z,2.50
2023-02-14T16:34:05.449Z,2.47
2023-02-14T16:36:34.047Z,2.50
2023-02-14T16:39:02.913Z,2.30
2023-02-14T16:41:32.345Z,2.40
2023-02-14T16:44:00.074Z,2.60
2023-02-14T16:46:30.850Z,2.38
2023-02-14T16:48:58.673Z,2.45
2023-02-14T16:51:29.127Z,2.30
2023-02-14T16:53:56.967Z,2.53
2023-02-14T16:56:27.000Z,2.53
2023-02-14T16:58:57.750Z,2.67
2023-02-14T17:01:25.469Z,2.35
2023-02-14T17:03:53.211Z,2.65
2023-02-14T17:06:22.623Z,2.30
2023-02-14T17:08:50.707Z,2.40
2023-02-14T17:11:18.436Z,2.60
2023-02-14T17:13:46.688Z,2.63
2023-02-14T17:16:16.326Z,2.40
2023-02-14T17:18:46.126Z,2.65
2023-02-14T17:21:13.973Z,2.40
2023-02-14T17:23:41.607Z,2.40
2023-02-14T17:26:11.100Z,2.40
2023-02-14T17:28:38.896Z,2.50
2023-02-14T17:31:07.135Z,2.50
2023-02-14T17:33:36.852Z,2.10
2023-02-14T17:36:06.552Z,2.30
2023-02-14T17:38:34.407Z,2.40
2023-02-14T17:41:08.945Z,2.38
2023-02-14T17:43:36.656Z,2.58
2023-02-14T17:46:05.418Z,2.50
2023-02-14T17:48:33.145Z,2.28
2023-02-14T17:51:05.845Z,2.47
2023-02-14T17:53:34.120Z,2.40
2023-02-14T17:56:07.473Z,2.33
2023-02-14T17:58:35.402Z,2.22
2023-02-14T18:01:04.508Z,2.47
2023-02-14T18:03:32.218Z,2.50
2023-02-14T18:05:59.938Z,2.50
2023-02-14T18:08:29.714Z,2.60
2023-02-14T18:10:57.550Z,2.50
2023-02-14T18:13:25.497Z,2.53
2023-02-14T18:15:53.469Z,2.63
2023-02-14T18:18:21.240Z,2.17
2023-02-14T18:20:53.830Z,2.35
2023-02-14T18:23:21.680Z,2.80
2023-02-14T18:25:55.657Z,2.60
2023-02-14T18:28:23.837Z,2.30
2023-02-14T18:30:51.544Z,2.53
2023-02-14T18:33:19.274Z,2.53
2023-02-14T18:35:47.149Z,2.38
2023-02-14T18:38:14.925Z,2.55
2023-02-14T18:40:42.812Z,2.38
2023-02-14T18:43:11.852Z,2.30
2023-02-14T18:45:39.770Z,2.50
2023-02-14T18:48:08.983Z,2.35
2023-02-14T18:50:36.714Z,2.70
2023-02-14T18:53:04.606Z,2.30
2023-02-14T18:55:32.274Z,2.63
2023-02-14T18:57:59.937Z,2.50
2023-02-14T19:00:32.250Z,2.20
2023-02-14T19:03:00.105Z,2.40
2023-02-14T19:05:28.059Z,2.20
2023-02-14T19:07:56.242Z,2.40
2023-02-14T19:10:23.917Z,2.60
2023-02-14T19:12:52.428Z,2.45
2023-02-14T19:15:20.250Z,2.40
2023-02-14T19:17:49.579Z,2.30
2023-02-14T19:20:17.579Z,2.25
2023-02-14T19:22:45.259Z,2.72
2023-02-14T19:25:12.949Z,2.45
2023-02-14T19:27:40.655Z,2.45
2023-02-14T19:30:10.601Z,2.45
2023-02-14T19:32:38.332Z,2.63
2023-02-14T19:35:08.441Z,2.45
2023-02-14T19:37:36.196Z,2.45
2023-02-14T19:40:04.647Z,2.10
2023-02-14T19:42:32.313Z,2.28
2023-02-14T19:44:59.984Z,2.00
2023-02-14T19:47:45.659Z,2.10
2023-02-14T19:50:15.175Z,2.20
2023-02-14T19:52:43.762Z,2.33
2023-02-14T19:55:19.364Z,2.40
2023-02-14T19:57:47.814Z,2.28
2023-02-14T20:00:17.314Z,2.42
2023-02-14T20:02:48.212Z,2.47
2023-02-14T20:05:17.610Z,2.60
2023-02-14T20:07:48.973Z,2.38
2023-02-14T20:10:16.781Z,2.58
2023-02-14T20:12:44.479Z,2.50
2023-02-14T20:15:12.142Z,2.50
2023-02-14T20:17:39.867Z,2.40
2023-02-14T20:20:13.129Z,2.40
2023-02-14T20:22:42.215Z,2.30
2023-02-14T20:25:10.095Z,2.30
2023-02-14T20:27:37.985Z,2.40
2023-02-14T20:30:06.574Z,2.22
2023-02-14T20:32:35.129Z,2.20
2023-02-14T20:35:02.844Z,2.30
2023-02-14T20:37:30.593Z,2.35
2023-02-14T20:39:59.562Z,2.17
2023-02-14T20:42:27.227Z,2.25
2023-02-14T20:44:54.898Z,2.53
2023-02-14T20:47:22.598Z,2.47
2023-02-14T20:49:50.629Z,2.20
2023-02-14T20:52:18.805Z,2.60
2023-02-14T20:54:46.474Z,2.30
2023-02-14T20:57:15.482Z,2.63
2023-02-14T20:59:45.151Z,2.42
2023-02-14T21:02:12.878Z,2.50
2023-02-14T21:04:40.768Z,2.17
2023-02-14T21:07:10.172Z,2.85
2023-02-14T21:09:38.714Z,2.17
2023-02-14T21:12:07.353Z,2.45
2023-02-14T21:14:36.354Z,2.30
2023-02-14T21:17:05.219Z,2.67
2023-02-14T21:19:32.966Z,2.20
2023-02-14T21:22:00.674Z,2.60
2023-02-14T21:24:28.790Z,2.50
2023-02-14T21:26:56.513Z,2.42
2023-02-14T21:29:24.196Z,2.72
2023-02-14T21:31:53.342Z,2.22
2023-02-14T21:34:21.053Z,2.40
2023-02-14T21:36:48.714Z,2.60
2023-02-14T21:39:16.357Z,2.65
2023-02-14T21:41:44.062Z,2.50
2023-02-14T21:44:32.083Z,2.35
2023-02-14T21:47:00.144Z,2.67
2023-02-14T21:49:45.384Z,2.50
2023-02-14T21:52:13.071Z,2.80
2023-02-14T21:54:40.761Z,2.72
2023-02-14T21:57:08.581Z,2.55
2023-02-14T21:59:36.241Z,2.50
2023-02-14T22:02:05.263Z,2.80
2023-02-14T22:04:33.029Z,2.83
2023-02-14T22:07:00.685Z,2.60
2023-02-14T22:09:28.402Z,2.60
2023-02-14T22:11:56.053Z,2.40
2023-02-14T22:14:23.716Z,2.42
2023-02-14T22:16:51.411Z,2.70
2023-02-14T22:19:20.475Z,2.58
2023-02-14T22:21:48.152Z,2.60
2023-02-14T22:24:15.809Z,2.40
2023-02-14T22:26:43.551Z,2.47
2023-02-14T22:29:12.386Z,2.60
2023-02-14T22:31:41.009Z,2.60
2023-02-14T22:34:10.099Z,2.50
2023-02-14T22:36:39.156Z,2.60
2023-02-14T22:39:07.325Z,2.30
2023-02-14T22:41:37.557Z,2.88
2023-02-14T22:44:05.745Z,2.60
2023-02-14T22:46:33.506Z,2.70
2023-02-14T22:49:01.232Z,2.63
2023-02-14T22:51:30.023Z,2.35
2023-02-14T22:54:00.526Z,2.80
2023-02-14T22:56:29.222Z,2.63
2023-02-14T22:58:57.374Z,2.55
2023-02-14T23:01:25.584Z,2.65
2023-02-14T23:03:53.981Z,2.70
2023-02-14T23:06:21.723Z,2.70
2023-02-14T23:08:49.488Z,2.78
2023-02-14T23:11:19.488Z,2.78
2023-02-14T23:14:05.048Z,2.60
2023-02-14T23:16:50.425Z,2.70
2023-02-14T23:19:36.948Z,2.55
2023-02-14T23:22:05.533Z,2.45
2023-02-14T23:24:33.195Z,2.40
2023-02-14T23:27:02.215Z,2.83
2023-02-14T23:29:29.881Z,2.60
2023-02-14T23:31:57.572Z,2.65
2023-02-14T23:34:25.792Z,2.65
2023-02-14T23:36:53.709Z,2.70
2023-02-14T23:39:21.362Z,2.70
2023-02-14T23:41:49.160Z,3.10
2023-02-14T23:44:19.494Z,2.53
2023-02-14T23:46:47.403Z,2.65
2023-02-14T23:49:15.174Z,2.83
2023-02-14T23:51:42.976Z,2.53
2023-02-14T23:54:10.699Z,2.85
2023-02-14T23:56:38.380Z,3.22
2023-02-14T23:59:06.136Z,3.00
